Home > Products > Valid Products > MTR

000
SAUS41 KCAR 221657
MTRGNR
METAR KGNR 221656Z AUTO VRB05G17KT M03/M13 A2994 RMK AO1 SLP163
T10281128





000
SAUS41 KCAR 221558
MTRGNR
METAR KGNR 221556Z AUTO 19010G17KT M04/M12 A2999 RMK AO1 SLP183
T10441122





000
SAUS41 KCAR 221458
MTRGNR
METAR KGNR 221456Z AUTO VRB06KT M06/M12 A3005 RMK AO1 SLP204
T10611122 58024





000
SAUS41 KCAR 221358
MTRGNR
METAR KGNR 221356Z AUTO VRB03KT M08/M12 A3008 RMK AO1 SLP213
T10781122





000
SAUS41 KCAR 221257
MTRGNR
METAR KGNR 221256Z AUTO VRB03KT M09/M13 A3012 RMK AO1 SLP228
T10891133





000
SAUS41 KCAR 221157
MTRGNR
METAR KGNR 221156Z AUTO VRB03KT M11/M14 A3012 RMK AO1 SLP232
T11061144 11100 21128 56002





000
SAUS41 KCAR 221058
MTRGNR
METAR KGNR 221056Z AUTO 19004KT M12/M16 A3013 RMK AO1 SLP232
T11171156





000
SAUS41 KCAR 220957
MTRGNR
METAR KGNR 220956Z AUTO 20003KT M12/M15 A3013 RMK AO1 SLP233
T11171150





000
SAUS41 KCAR 220957
MTRGNR
METAR KGNR 220956Z AUTO 20003KT M12/M15 A3013 RMK AO1 SLP233
T11171150





000
SAUS41 KCAR 220858
MTRGNR
METAR KGNR 220856Z AUTO 00000KT M11/M16 A3013 RMK AO1 SLP233
T11111156 50001





000
SAUS41 KCAR 220757
MTRGNR
METAR KGNR 220756Z AUTO VRB05KT M11/M15 A3013 RMK AO1 SLP232
T11061150





000
SAUS41 KCAR 220658
MTRGNR
METAR KGNR 220656Z AUTO 30007G15KT 260V320 M11/M16 A3013 RMK AO1
SLP233 T11111156





000
SAUS41 KCAR 220557
MTRGNR
METAR KGNR 220556Z AUTO 30007KT 270V340 M11/M16 A3013 RMK AO1 SLP230
T11111156 11094 21111 53002





000
SAUS41 KCAR 220458
MTRGNR
METAR KGNR 220456Z AUTO 30009G21KT 270V330 M11/M16 A3012 RMK AO1
SLP228 T11111156 410501111





000
SAUS41 KCAR 220357
MTRGNR
METAR KGNR 220356Z AUTO 31010G18KT 270V340 M11/M16 A3012 RMK AO1
SLP227 T11061156





000
SAUS41 KCAR 220357
MTRGNR
METAR KGNR 220356Z AUTO 31010G18KT 270V340 M11/M16 A3012 RMK AO1
SLP227 T11061156





000
SAUS41 KCAR 220258
MTRGNR
METAR KGNR 220256Z AUTO 31007G15KT 250V350 M11/M16 A3012 RMK AO1
SLP228 T11061156 51015





000
SAUS41 KCAR 220157
MTRGNR
METAR KGNR 220156Z AUTO VRB06G26KT M10/M16 A3011 RMK AO1 PK WND
32026/0152 SLP224 T11001156





000
SAUS41 KCAR 220058
MTRGNR
METAR KGNR 220056Z AUTO 30009G19KT 240V330 M09/M16 A3009 RMK AO1
SLP218 T10941156





000
SAUS41 KCAR 212357
MTRGNR
METAR KGNR 212356Z AUTO 31011G21KT M09/M15 A3007 RMK AO1 SLP212
T10941150 11056 21094 51027





000
SAUS41 KCAR 212257
MTRGNR
METAR KGNR 212256Z AUTO 30009G21KT 250V330 M09/M14 A3006 RMK AO1
SLP206 T10891144





000
SAUS41 KCAR 212157
MTRGNR
METAR KGNR 212156Z AUTO 30007KT 260V330 M08/M13 A3002 RMK AO1 SLP196
T10831128





000
SAUS41 KCAR 212057
MTRGNR
METAR KGNR 212056Z AUTO 31011G18KT M08/M13 A2999 RMK AO1 SLP184
T10781133 53034





000
SAUS41 KCAR 211958
MTRGNR
METAR KGNR 211956Z AUTO 31010G21KT 270V330 M08/M13 A2995 RMK AO1
SLP170 T10781133





000
SAUS41 KCAR 211857
MTRGNR
METAR KGNR 211856Z AUTO VRB06G18KT M07/M13 A2992 RMK AO1 PK WND
33026/1820 SLP156 T10671128





000
SAUS41 KCAR 211758
MTRGNR
METAR KGNR 211756Z AUTO 29007G22KT 220V080 M06/M12 A2988 RMK AO1
SLP145 T10561122 11050 21072 53020





000
SAUS41 KCAR 211657
MTRGNR
METAR KGNR 211656Z AUTO 31007G16KT 280V340 M06/M13 A2986 RMK AO1
SLP136 T10611128





000
SAUS41 KCAR 211558
MTRGNR
METAR KGNR 211556Z AUTO 30007G19KT 200V330 M06/M11 A2984 RMK AO1
SLP130 T10561111





000
SAUS41 KCAR 211558
MTRGNR
METAR KGNR 211556Z AUTO 30007G19KT 200V330 M06/M11 A2984 RMK AO1
SLP130 T10561111





000
SAUS41 KCAR 211457
MTRGNR
METAR KGNR 211456Z AUTO 31008G23KT 270V340 M06/M12 A2982 RMK AO1
SLP124 T10611117 53030





000
SAUS41 KCAR 211358
MTRGNR
METAR KGNR 211356Z AUTO 30008G15KT 260V350 M06/M12 A2978 RMK AO1
SLP110 T10611117





000
SAUS41 KCAR 211257
MTRGNR
METAR KGNR 211256Z AUTO VRB06KT M07/M11 A2977 RMK AO1 SLP104
T10721106





000
SAUS41 KCAR 211157
MTRGNR
METAR KGNR 211156Z AUTO VRB04KT M07/M11 A2973 RMK AO1 SLP093 70002
T10721111 11067 21100 53019





000
SAUS41 KCAR 211058
MTRGNR
METAR KGNR 211056Z AUTO 00000KT M07/M12 A2971 RMK AO1 SLP083
T10721117





000
SAUS41 KCAR 210959
MTRGNR
METAR KGNR 210956Z AUTO 00000KT M09/M13 A2968 RMK AO1 SLP076
T10891128





000
SAUS41 KCAR 210858
MTRGNR
METAR KGNR 210856Z AUTO 00000KT M09/M13 A2968 RMK AO1 SLP073
T10941133 53001





000
SAUS41 KCAR 210757
MTRGNR
METAR KGNR 210756Z AUTO 00000KT M08/M13 A2967 RMK AO1 SLP070
T10781133





000
SAUS41 KCAR 210658
MTRGNR
METAR KGNR 210656Z AUTO 00000KT M07/M13 A2967 RMK AO1 SLP071
T10721128





000
SAUS41 KCAR 210557
MTRGNR
METAR KGNR 210556Z AUTO 00000KT M07/M13 A2967 RMK AO1 SLP070
T10721128 11044 21083 55000





000
SAUS41 KCAR 210457
MTRGNR
METAR KGNR 210456Z AUTO VRB03KT M07/M12 A2966 RMK AO1 SLP067
T10721117 410171094





000
SAUS41 KCAR 210358
MTRGNR
METAR KGNR 210356Z AUTO M07/M11 A2967 RMK AO1 SLP068 T10671111





000
SAUS41 KCAR 210257
MTRGNR
METAR KGNR 210256Z AUTO 32003KT M07/M11 A2967 RMK AO1 SLP072
T10721111 50002





000
SAUS41 KCAR 210158
MTRGNR
METAR KGNR 210156Z AUTO 00000KT M07/M10 A2968 RMK AO1 SLP073
T10721100





000
SAUS41 KCAR 210057
MTRGNR
METAR KGNR 210056Z AUTO 00000KT M06/M09 A2967 RMK AO1 SLP074
T10611089





000
SAUS41 KCAR 202358
MTRGNR
METAR KGNR 202356Z AUTO 00000KT M05/M08 A2967 RMK AO1 SLP071 P0001
60002 T10501078 11017 21050 51017





000
SAUS41 KCAR 202257
MTRGNR
METAR KGNR 202256Z AUTO VRB04KT M04/M06 A2966 RMK AO1 SLP068 P0001
T10391056





000
SAUS41 KCAR 202157
MTRGNR
METAR KGNR 202156Z AUTO VRB05KT M03/M06 A2963 RMK AO1 SLP058
T10331061





000
SAUS41 KCAR 202057
MTRGNR
METAR KGNR 202056Z AUTO 00000KT M03/M07 A2962 RMK AO1 SLP051
T10281072 56003





000
SAUS41 KCAR 201958
MTRGNR
METAR KGNR 201956Z AUTO VRB04KT M02/M07 A2962 RMK AO1 SLP053
T10221072





000
SAUS41 KCAR 201857
MTRGNR
METAR KGNR 201856Z AUTO 11004KT M02/M08 A2962 RMK AO1 SLP052
T10221078





000
SAUS41 KCAR 201758
MTRGNR
METAR KGNR 201756Z AUTO 14005KT M03/M08 A2963 RMK AO1 SLP055
T10281083 11028 21089 58027





000
SAUS41 KCAR 201657
MTRGNR
METAR KGNR 201656Z AUTO VRB04KT M03/M08 A2965 RMK AO1 SLP063
T10331083





000
SAUS41 KCAR 201600
MTRGNR
METAR KGNR 201556Z AUTO VRB03KT M03/M09 A2969 RMK AO1 SLP076
T10331089





000
SAUS41 KCAR 201457
MTRGNR
METAR KGNR 201456Z AUTO VRB04KT M04/M10 A2971 RMK AO1 SLP085
T10441100 56010





000
SAUS41 KCAR 201358
MTRGNR
METAR KGNR 201356Z AUTO 16004KT M07/M11 A2971 RMK AO1 SLP086
T10671106





000
SAUS41 KCAR 201257
MTRGNR
METAR KGNR 201256Z AUTO VRB03KT M08/M11 A2973 RMK AO1 SLP093
T10831111





000
SAUS41 KCAR 201157
MTRGNR
METAR KGNR 201156Z AUTO 15003KT M09/M12 A2974 RMK AO1 SLP099
T10891117 11072 21094 58016





000
SAUS41 KCAR 201058
MTRGNR
METAR KGNR 201056Z AUTO 13004KT M09/M12 A2976 RMK AO1 SLP106
T10891122





000
SAUS41 KCAR 200957
MTRGNR
METAR KGNR 200956Z AUTO VRB03KT M08/M12 A2977 RMK AO1 SLP108
T10781117





000
SAUS41 KCAR 200957
MTRGNR
METAR KGNR 200956Z AUTO VRB03KT M08/M12 A2977 RMK AO1 SLP108
T10781117





000
SAUS41 KCAR 200858
MTRGNR
METAR KGNR 200856Z AUTO VRB05KT M07/M12 A2979 RMK AO1 SLP112
T10721122 56026





000
SAUS41 KCAR 200757
MTRGNR
METAR KGNR 200756Z AUTO 12006KT M07/M12 A2980 RMK AO1 SLP116
T10721122





000
SAUS41 KCAR 200658
MTRGNR
METAR KGNR 200656Z AUTO 14005KT M07/M12 A2985 RMK AO1 SLP131
T10721122





000
SAUS41 KCAR 200557
MTRGNR
METAR KGNR 200556Z AUTO 11005KT M07/M13 A2987 RMK AO1 SLP137
T10721128 11067 21094 58018





000
SAUS41 KCAR 200458
MTRGNR
METAR KGNR 200456Z AUTO 00000KT M07/M13 A2989 RMK AO1 SLP146
T10721133 410281106





000
SAUS41 KCAR 200357
MTRGNR
METAR KGNR 200356Z AUTO 12006KT M08/M14 A2991 RMK AO1 SLP152
T10781139





000
SAUS41 KCAR 200357
MTRGNR
METAR KGNR 200356Z AUTO 12006KT M08/M14 A2991 RMK AO1 SLP152
T10781139





000
SAUS41 KCAR 200259
MTRGNR
METAR KGNR 200256Z AUTO 00000KT M09/M14 A2992 RMK AO1 SLP159
T10891144 58005





000
SAUS41 KCAR 200157
MTRGNR
METAR KGNR 200156Z AUTO 17003KT M07/M14 A2994 RMK AO1 SLP162
T10721144





000
SAUS41 KCAR 200058
MTRGNR
METAR KGNR 200056Z AUTO 00000KT M09/M15 A2994 RMK AO1 SLP165
T10941150





000
SAUS41 KCAR 192257
MTRGNR
METAR KGNR 192256Z AUTO 00000KT M08/M14 A2994 RMK AO1 SLP165
T10831144





000
SAUS41 KCAR 192157
MTRGNR
METAR KGNR 192156Z AUTO 00000KT M07/M15 A2993 RMK AO1 SLP163
T10671150





000
SAUS41 KCAR 192057
MTRGNR
METAR KGNR 192056Z AUTO VRB03KT M06/M15 A2992 RMK AO1 SLP157
T10561150 53019





000
SAUS41 KCAR 191958
MTRGNR
METAR KGNR 191956Z AUTO VRB03KT M04/M14 A2990 RMK AO1 SLP149
T10441144





000
SAUS41 KCAR 191857
MTRGNR
METAR KGNR 191856Z AUTO M03/M14 A2988 RMK AO1 SLP142 T10331139





000
SAUS41 KCAR 191758
MTRGNR
METAR KGNR 191756Z AUTO VRB06KT M03/M13 A2986 RMK AO1 SLP136
T10331133 11028 21072 51017





    US Dept of Commerce
    National Oceanic and Atmospheric Administration
    National Weather Service
    1325 East West Highway
    Silver Spring, MD 20910
    Page Author: NWS Internet Services Team
Disclaimer
Information Quality
Credits
Glossary
Privacy Policy
Freedom of Information Act (FOIA)
About Us
Career Opportunities